Time;durP1;ratioP1;P1;durP2;ratioP2;P2;SDS_P1;SDS_P2;PMS_P1;PMS_P2;Temp;Humidity;BMP_temperature;BMP_pressure;BME280_temperature;BME280_humidity;BME280_pressure;Samples;Min_cycle;Max_cycle;Signal;HPM_P1;HPM_P2
2023/08/04 00:00:21;;;;;;;15.10;13.68;;;;;;;;;;4955138;28;20118;-75
2023/08/04 00:02:48;;;;;;;14.98;13.05;;;;;;;;;;4958590;29;20114;-72
2023/08/04 00:05:14;;;;;;;15.15;12.88;;;;;;;;;;4960969;29;20045;-74
2023/08/04 00:07:42;;;;;;;16.13;13.23;;;;;;;;;;4958505;28;20111;-72
2023/08/04 00:10:08;;;;;;;14.80;13.43;;;;;;;;;;4959868;29;20067;-72
2023/08/04 00:12:34;;;;;;;14.18;12.75;;;;;;;;;;4959303;28;20229;-72
2023/08/04 00:15:00;;;;;;;13.63;12.52;;;;;;;;;;4958171;28;20359;-74
2023/08/04 00:17:28;;;;;;;13.93;12.82;;;;;;;;;;4956839;28;20037;-74
2023/08/04 00:19:54;;;;;;;13.63;12.52;;;;;;;;;;4956174;28;20090;-74
2023/08/04 00:22:20;;;;;;;13.60;12.25;;;;;;;;;;4956069;28;20035;-74
2023/08/04 00:24:46;;;;;;;20.58;13.30;;;;;;;;;;4956059;28;20054;-74
2023/08/04 00:27:12;;;;;;;14.55;13.18;;;;;;;;;;4954390;29;20034;-74
2023/08/04 00:29:40;;;;;;;13.05;12.02;;;;;;;;;;4955730;28;20037;-73
2023/08/04 00:32:06;;;;;;;13.32;12.13;;;;;;;;;;4955693;28;20066;-72
2023/08/04 00:34:32;;;;;;;13.95;12.85;;;;;;;;;;4953925;29;20553;-73
2023/08/04 00:36:59;;;;;;;14.52;13.13;;;;;;;;;;4938332;29;20522;-72
2023/08/04 00:39:26;;;;;;;14.40;13.18;;;;;;;;;;4938053;29;20414;-73
2023/08/04 00:41:52;;;;;;;14.93;13.38;;;;;;;;;;4955387;28;20039;-74
2023/08/04 00:44:18;;;;;;;14.65;13.23;;;;;;;;;;4953838;29;20086;-75
2023/08/04 00:46:44;;;;;;;15.63;14.00;;;;;;;;;;4955257;29;20043;-72
2023/08/04 00:49:10;;;;;;;15.43;13.60;;;;;;;;;;4953848;29;20027;-74
2023/08/04 00:51:36;;;;;;;14.57;13.45;;;;;;;;;;4954920;28;20418;-72
2023/08/04 00:54:03;;;;;;;14.98;13.63;;;;;;;;;;4953691;29;20091;-74
2023/08/04 00:56:30;;;;;;;14.07;12.45;;;;;;;;;;4955013;28;20047;-73
2023/08/04 00:58:57;;;;;;;13.85;12.55;;;;;;;;;;4953573;29;20050;-74
2023/08/04 01:01:23;;;;;;;14.88;12.48;;;;;;;;;;4937649;29;20105;-74
2023/08/04 01:03:49;;;;;;;14.50;13.35;;;;;;;;;;4921973;29;20035;-74
2023/08/04 01:06:18;;;;;;;23.98;18.90;;;;;;;;;;4953333;29;20046;-73
2023/08/04 01:08:49;;;;;;;21.73;17.85;;;;;;;;;;4956731;29;20450;-74
2023/08/04 01:11:16;;;;;;;18.70;17.00;;;;;;;;;;4956456;28;20047;-73
2023/08/04 01:13:42;;;;;;;17.13;15.40;;;;;;;;;;4957351;29;20035;-73
2023/08/04 01:16:08;;;;;;;17.10;15.40;;;;;;;;;;4957994;28;20054;-72
2023/08/04 01:18:34;;;;;;;17.27;15.75;;;;;;;;;;4957085;28;20516;-73
2023/08/04 01:21:02;;;;;;;16.60;15.18;;;;;;;;;;4956733;29;20498;-73
2023/08/04 01:23:28;;;;;;;16.95;15.02;;;;;;;;;;4957483;28;20035;-73
2023/08/04 01:25:54;;;;;;;17.30;13.68;;;;;;;;;;4957819;29;20035;-73
2023/08/04 01:28:20;;;;;;;15.50;14.23;;;;;;;;;;4956385;29;20418;-73
2023/08/04 01:30:47;;;;;;;14.95;13.55;;;;;;;;;;4955444;28;20054;-74
2023/08/04 01:33:13;;;;;;;20.60;13.75;;;;;;;;;;4953291;29;20035;-74
2023/08/04 01:35:40;;;;;;;18.42;14.73;;;;;;;;;;4953057;29;20039;-73
2023/08/04 01:38:07;;;;;;;19.45;15.13;;;;;;;;;;4952922;29;20593;-74
2023/08/04 01:40:33;;;;;;;15.50;14.25;;;;;;;;;;4954321;29;20039;-73
2023/08/04 01:43:00;;;;;;;16.35;14.82;;;;;;;;;;4956012;28;20225;-73
2023/08/04 01:45:26;;;;;;;16.67;14.90;;;;;;;;;;4954829;29;20046;-72
2023/08/04 01:47:52;;;;;;;15.82;14.45;;;;;;;;;;4952885;29;20431;-74
2023/08/04 01:50:17;;;;;;;14.85;13.65;;;;;;;;;;4952626;29;20074;-74
2023/08/04 01:52:44;;;;;;;14.05;12.80;;;;;;;;;;4952989;28;20035;-73
2023/08/04 01:55:10;;;;;;;14.77;13.38;;;;;;;;;;4954161;29;20550;-74
2023/08/04 01:57:37;;;;;;;16.77;12.70;;;;;;;;;;4953592;29;20518;-73
2023/08/04 02:00:03;;;;;;;15.80;12.38;;;;;;;;;;4953878;29;20042;-73
2023/08/04 02:02:37;;;;;;;12.85;11.55;;;;;;;;;;4953897;28;20042;-74
2023/08/04 02:05:04;;;;;;;13.38;12.02;;;;;;;;;;4953830;28;20035;-73
2023/08/04 02:07:30;;;;;;;12.73;11.73;;;;;;;;;;4953577;28;20169;-73
2023/08/04 02:09:56;;;;;;;13.35;12.15;;;;;;;;;;4952318;29;20117;-73
2023/08/04 02:12:21;;;;;;;12.85;11.80;;;;;;;;;;4951996;29;20039;-74
2023/08/04 02:14:47;;;;;;;15.43;13.55;;;;;;;;;;4952114;29;20178;-75
2023/08/04 02:17:15;;;;;;;13.02;11.95;;;;;;;;;;4953457;28;20078;-72
2023/08/04 02:19:42;;;;;;;15.20;13.02;;;;;;;;;;4953365;28;20118;-74
2023/08/04 02:22:08;;;;;;;13.98;12.48;;;;;;;;;;4951505;28;20035;-73
2023/08/04 02:24:34;;;;;;;12.85;11.68;;;;;;;;;;4952983;29;20035;-73
2023/08/04 02:27:00;;;;;;;12.57;11.38;;;;;;;;;;4953295;28;20043;-74
2023/08/04 02:29:26;;;;;;;12.27;11.10;;;;;;;;;;4952936;29;20035;-75
2023/08/04 02:31:52;;;;;;;13.18;12.13;;;;;;;;;;4953493;28;20045;-75
2023/08/04 02:34:20;;;;;;;11.43;10.38;;;;;;;;;;4951718;29;20047;-73
2023/08/04 02:36:46;;;;;;;12.90;11.18;;;;;;;;;;4953361;29;20039;-74
2023/08/04 02:39:12;;;;;;;11.20;9.75;;;;;;;;;;4951943;29;20039;-73
2023/08/04 02:41:38;;;;;;;10.65;9.90;;;;;;;;;;4953075;28;20414;-76
2023/08/04 02:44:06;;;;;;;12.55;10.15;;;;;;;;;;4953160;28;20310;-74
2023/08/04 02:46:32;;;;;;;13.75;10.35;;;;;;;;;;4951700;29;20360;-75
2023/08/04 02:48:58;;;;;;;14.38;11.65;;;;;;;;;;4952967;28;20062;-74
2023/08/04 02:51:24;;;;;;;11.30;10.35;;;;;;;;;;4952758;28;20070;-73
2023/08/04 02:53:51;;;;;;;12.93;11.68;;;;;;;;;;4952928;28;20039;-75
2023/08/04 02:56:17;;;;;;;12.80;11.55;;;;;;;;;;4952884;28;20106;-74
2023/08/04 02:58:44;;;;;;;15.32;11.80;;;;;;;;;;4951888;29;20116;-74
2023/08/04 03:01:10;;;;;;;14.73;13.23;;;;;;;;;;4936343;29;20039;-74
2023/08/04 03:03:37;;;;;;;14.88;13.48;;;;;;;;;;4952805;28;20039;-73
2023/08/04 03:06:03;;;;;;;14.65;12.95;;;;;;;;;;4953450;29;20467;-74
2023/08/04 03:08:29;;;;;;;13.57;12.48;;;;;;;;;;4951720;29;20558;-74
2023/08/04 03:10:55;;;;;;;13.80;12.45;;;;;;;;;;4954650;28;20118;-74
2023/08/04 03:13:21;;;;;;;14.57;13.48;;;;;;;;;;4965594;29;20082;-72
2023/08/04 03:15:53;;;;;;;17.33;14.23;;;;;;;;;;4966258;28;20054;-75
2023/08/04 03:18:19;;;;;;;17.58;12.02;;;;;;;;;;4953067;29;20415;-74
2023/08/04 03:20:44;;;;;;;15.82;11.90;;;;;;;;;;4952401;29;20216;-75
2023/08/04 03:23:10;;;;;;;12.82;11.45;;;;;;;;;;4952359;28;20522;-74
2023/08/04 03:25:37;;;;;;;11.68;10.68;;;;;;;;;;4952154;29;20039;-75
2023/08/04 03:28:03;;;;;;;13.25;11.98;;;;;;;;;;4952298;28;20038;-74
2023/08/04 03:30:29;;;;;;;11.85;10.93;;;;;;;;;;4952103;29;20042;-74
2023/08/04 03:32:55;;;;;;;12.18;11.15;;;;;;;;;;4935280;28;20526;-74
2023/08/04 03:35:21;;;;;;;12.23;11.00;;;;;;;;;;4951405;28;20110;-74
2023/08/04 03:37:47;;;;;;;16.30;12.18;;;;;;;;;;4951066;29;20035;-74
2023/08/04 03:40:14;;;;;;;16.50;12.10;;;;;;;;;;4950932;29;20411;-74
2023/08/04 03:42:40;;;;;;;14.80;11.95;;;;;;;;;;4951928;29;20037;-74
2023/08/04 03:45:06;;;;;;;15.85;11.93;;;;;;;;;;4952199;28;20106;-74
2023/08/04 03:47:33;;;;;;;12.65;11.60;;;;;;;;;;4951838;29;20042;-75
2023/08/04 03:49:59;;;;;;;12.50;11.35;;;;;;;;;;4950747;29;20391;-74
2023/08/04 03:52:25;;;;;;;12.30;11.13;;;;;;;;;;4951724;28;20090;-75
2023/08/04 03:54:51;;;;;;;13.43;11.65;;;;;;;;;;4966736;28;20506;-74
2023/08/04 03:57:17;;;;;;;11.82;10.57;;;;;;;;;;4951757;28;20102;-74
2023/08/04 03:59:43;;;;;;;11.60;10.52;;;;;;;;;;4952018;28;20469;-75
2023/08/04 04:02:09;;;;;;;11.98;10.85;;;;;;;;;;4952000;28;20042;-76
2023/08/04 04:04:35;;;;;;;11.77;10.82;;;;;;;;;;4950454;29;20039;-73
2023/08/04 04:07:01;;;;;;;11.48;10.30;;;;;;;;;;4950846;29;20042;-77
2023/08/04 04:09:27;;;;;;;11.38;10.27;;;;;;;;;;4951447;29;20035;-74
2023/08/04 04:11:53;;;;;;;13.52;9.85;;;;;;;;;;4951880;29;20046;-75
2023/08/04 04:14:19;;;;;;;11.45;10.38;;;;;;;;;;4951605;28;20525;-75
2023/08/04 04:16:45;;;;;;;11.95;9.88;;;;;;;;;;4934563;29;20031;-76
2023/08/04 04:19:11;;;;;;;11.15;9.95;;;;;;;;;;4951830;28;20061;-76
2023/08/04 04:21:37;;;;;;;11.45;10.02;;;;;;;;;;4951582;29;20555;-72
2023/08/04 04:24:03;;;;;;;12.43;10.07;;;;;;;;;;4951972;29;20059;-74
2023/08/04 04:26:29;;;;;;;13.85;10.32;;;;;;;;;;4950761;29;20067;-75
2023/08/04 04:28:55;;;;;;;11.55;10.20;;;;;;;;;;4951944;28;20074;-73
2023/08/04 04:31:21;;;;;;;17.23;9.90;;;;;;;;;;4950501;29;20102;-75
2023/08/04 04:33:47;;;;;;;11.15;10.15;;;;;;;;;;4951432;28;20123;-75
2023/08/04 04:36:13;;;;;;;16.30;10.15;;;;;;;;;;4951583;28;20522;-74
2023/08/04 04:38:39;;;;;;;17.42;9.70;;;;;;;;;;4951225;28;20040;-75
2023/08/04 04:41:05;;;;;;;12.85;9.55;;;;;;;;;;4951599;29;20091;-75
2023/08/04 04:43:32;;;;;;;17.67;10.82;;;;;;;;;;4951426;28;20437;-76
2023/08/04 04:45:58;;;;;;;11.45;10.13;;;;;;;;;;4953285;28;20122;-74
2023/08/04 04:48:23;;;;;;;14.05;9.85;;;;;;;;;;4955049;28;20138;-74
2023/08/04 04:50:49;;;;;;;11.82;9.45;;;;;;;;;;4955274;28;20035;-74
2023/08/04 04:53:15;;;;;;;10.45;9.35;;;;;;;;;;4955932;28;20094;-73
2023/08/04 04:55:42;;;;;;;11.25;9.10;;;;;;;;;;4954740;29;20142;-76
2023/08/04 04:58:07;;;;;;;9.95;8.98;;;;;;;;;;4953624;29;20047;-76
2023/08/04 05:00:34;;;;;;;12.00;9.18;;;;;;;;;;4953396;29;20409;-75
2023/08/04 05:03:00;;;;;;;11.57;9.10;;;;;;;;;;4955121;28;20086;-76
2023/08/04 05:05:26;;;;;;;11.05;9.90;;;;;;;;;;4953613;29;20043;-75
2023/08/04 05:07:52;;;;;;;9.90;8.98;;;;;;;;;;4953398;29;20031;-76
2023/08/04 05:10:18;;;;;;;15.00;9.80;;;;;;;;;;4954758;28;20066;-74
2023/08/04 05:12:45;;;;;;;19.10;9.98;;;;;;;;;;4954467;28;20035;-75
2023/08/04 05:15:11;;;;;;;13.82;10.05;;;;;;;;;;4954708;28;20057;-74
2023/08/04 05:17:38;;;;;;;13.60;10.02;;;;;;;;;;4954305;28;20039;-74
2023/08/04 05:20:06;;;;;;;16.40;9.88;;;;;;;;;;4954452;28;20560;-75
2023/08/04 05:22:32;;;;;;;11.10;9.65;;;;;;;;;;4954263;28;20491;-75
2023/08/04 05:24:58;;;;;;;11.90;9.70;;;;;;;;;;4954458;29;20079;-74
2023/08/04 05:27:24;;;;;;;12.98;9.60;;;;;;;;;;4953386;29;20451;-76
2023/08/04 05:29:50;;;;;;;10.15;9.30;;;;;;;;;;4954138;28;20506;-74
2023/08/04 05:32:16;;;;;;;15.30;9.57;;;;;;;;;;4954480;28;20050;-73
2023/08/04 05:34:42;;;;;;;10.45;9.18;;;;;;;;;;4953978;28;20047;-74
2023/08/04 05:37:08;;;;;;;14.73;9.02;;;;;;;;;;4954428;28;20042;-75
2023/08/04 05:39:34;;;;;;;11.68;9.68;;;;;;;;;;4953793;28;20047;-75
2023/08/04 05:42:01;;;;;;;14.93;8.77;;;;;;;;;;4954170;28;20122;-75
2023/08/04 05:44:28;;;;;;;13.52;9.38;;;;;;;;;;4953883;29;20042;-76
2023/08/04 05:46:53;;;;;;;10.13;8.95;;;;;;;;;;4953945;28;20039;-75
2023/08/04 05:49:19;;;;;;;9.18;8.57;;;;;;;;;;4952864;29;20061;-75
2023/08/04 05:51:46;;;;;;;10.15;9.20;;;;;;;;;;4952729;29;20480;-74
2023/08/04 05:54:12;;;;;;;9.43;8.48;;;;;;;;;;4953955;28;20043;-75
2023/08/04 05:56:38;;;;;;;10.85;9.43;;;;;;;;;;4952895;28;20035;-76
2023/08/04 05:59:04;;;;;;;12.63;8.85;;;;;;;;;;4953428;28;20106;-75
2023/08/04 06:01:30;;;;;;;9.15;8.43;;;;;;;;;;4953858;28;20043;-75
2023/08/04 06:03:57;;;;;;;9.05;8.35;;;;;;;;;;4953817;29;20035;-74
2023/08/04 06:06:23;;;;;;;12.15;9.60;;;;;;;;;;4953169;29;20557;-75
2023/08/04 06:08:49;;;;;;;9.18;8.20;;;;;;;;;;4952672;29;20035;-76
2023/08/04 06:11:15;;;;;;;9.40;8.18;;;;;;;;;;4955564;29;20047;-73
2023/08/04 06:13:41;;;;;;;9.63;7.93;;;;;;;;;;4954549;28;20450;-74
2023/08/04 06:16:08;;;;;;;10.82;9.20;;;;;;;;;;4957753;28;20537;-75
2023/08/04 06:18:34;;;;;;;10.18;8.48;;;;;;;;;;4965456;28;20057;-75
2023/08/04 06:21:00;;;;;;;11.80;7.97;;;;;;;;;;4965603;29;20035;-75
2023/08/04 06:23:26;;;;;;;9.52;8.48;;;;;;;;;;4961717;28;20175;-75
2023/08/04 06:25:52;;;;;;;9.02;8.00;;;;;;;;;;4953338;28;20039;-75
2023/08/04 06:28:18;;;;;;;8.65;7.95;;;;;;;;;;4952054;29;20050;-74
2023/08/04 06:30:44;;;;;;;8.70;7.97;;;;;;;;;;4953122;28;20118;-75
2023/08/04 06:33:11;;;;;;;12.82;8.25;;;;;;;;;;4952143;29;20530;-75
2023/08/04 06:35:41;;;;;;;8.80;8.10;;;;;;;;;;4952761;29;20155;-75
2023/08/04 06:38:09;;;;;;;8.77;8.05;;;;;;;;;;4953197;28;20478;-77
2023/08/04 06:40:35;;;;;;;14.18;9.05;;;;;;;;;;4951567;29;20079;-74
2023/08/04 06:43:01;;;;;;;9.23;8.50;;;;;;;;;;4953182;29;20445;-75
2023/08/04 06:45:28;;;;;;;8.55;7.60;;;;;;;;;;4952879;28;20043;-75
2023/08/04 06:47:54;;;;;;;9.18;8.30;;;;;;;;;;4952828;28;20051;-77
2023/08/04 06:50:20;;;;;;;8.75;8.15;;;;;;;;;;4952798;29;20154;-75
2023/08/04 06:52:47;;;;;;;10.90;8.02;;;;;;;;;;4952572;29;20077;-75
2023/08/04 06:55:13;;;;;;;9.60;8.50;;;;;;;;;;4951194;29;20074;-75
2023/08/04 06:57:39;;;;;;;13.85;8.05;;;;;;;;;;4952255;28;20051;-75
2023/08/04 07:00:05;;;;;;;10.77;8.32;;;;;;;;;;4952935;28;20510;-74
2023/08/04 07:02:33;;;;;;;8.57;7.82;;;;;;;;;;4952701;28;20093;-74
2023/08/04 07:04:58;;;;;;;9.38;7.68;;;;;;;;;;4952467;28;20129;-75
2023/08/04 07:07:24;;;;;;;8.80;7.63;;;;;;;;;;4952568;28;20113;-75
2023/08/04 07:09:51;;;;;;;14.90;8.60;;;;;;;;;;4952014;28;20042;-74
2023/08/04 07:12:17;;;;;;;9.20;7.85;;;;;;;;;;4952594;28;20035;-75
2023/08/04 07:14:43;;;;;;;10.18;7.47;;;;;;;;;;4950844;29;20146;-74
2023/08/04 07:17:09;;;;;;;8.30;7.50;;;;;;;;;;4952509;28;20113;-76
2023/08/04 07:19:35;;;;;;;9.73;8.35;;;;;;;;;;4952430;28;20035;-75
2023/08/04 07:22:01;;;;;;;9.13;8.15;;;;;;;;;;4935190;29;20038;-75
2023/08/04 07:24:27;;;;;;;8.13;7.07;;;;;;;;;;4952247;28;20035;-75
2023/08/04 07:26:53;;;;;;;8.10;7.28;;;;;;;;;;4952246;28;20146;-75
2023/08/04 07:29:19;;;;;;;7.72;7.13;;;;;;;;;;4952505;28;20557;-75
2023/08/04 07:31:45;;;;;;;8.77;7.85;;;;;;;;;;4952313;28;20071;-75
2023/08/04 07:34:11;;;;;;;9.07;7.50;;;;;;;;;;4952167;28;20066;-76
2023/08/04 07:36:37;;;;;;;8.68;7.88;;;;;;;;;;4950805;29;20069;-76
2023/08/04 07:39:03;;;;;;;9.02;8.25;;;;;;;;;;4952156;28;20467;-74
2023/08/04 07:41:29;;;;;;;8.55;7.65;;;;;;;;;;4952191;28;20045;-75
2023/08/04 07:43:56;;;;;;;7.50;6.97;;;;;;;;;;4934950;29;20039;-74
2023/08/04 07:46:22;;;;;;;7.03;6.45;;;;;;;;;;4952219;29;20042;-75
2023/08/04 07:48:48;;;;;;;6.90;6.10;;;;;;;;;;4951344;29;20090;-76
2023/08/04 07:51:15;;;;;;;7.15;6.60;;;;;;;;;;4951876;29;20039;-74
2023/08/04 07:53:41;;;;;;;8.98;5.93;;;;;;;;;;4950668;29;20035;-76
2023/08/04 07:56:07;;;;;;;11.10;6.15;;;;;;;;;;4951885;29;20047;-75
2023/08/04 07:58:33;;;;;;;5.72;5.43;;;;;;;;;;4952052;28;20536;-72
2023/08/04 08:00:59;;;;;;;6.15;5.55;;;;;;;;;;4951805;29;20043;-74
2023/08/04 08:03:25;;;;;;;6.13;5.57;;;;;;;;;;4951904;28;20039;-75
2023/08/04 08:05:51;;;;;;;6.40;5.80;;;;;;;;;;4951361;28;20046;-75
2023/08/04 08:08:18;;;;;;;6.15;5.63;;;;;;;;;;4951964;28;20035;-75
2023/08/04 08:10:44;;;;;;;5.78;5.38;;;;;;;;;;4951470;28;20039;-76
2023/08/04 08:13:10;;;;;;;5.75;5.22;;;;;;;;;;4951834;28;20118;-75
2023/08/04 08:15:36;;;;;;;6.03;5.50;;;;;;;;;;4951595;28;20055;-74
2023/08/04 08:18:03;;;;;;;5.68;5.07;;;;;;;;;;4951620;29;20031;-75
2023/08/04 08:20:29;;;;;;;5.20;4.90;;;;;;;;;;4952656;28;20046;-73
2023/08/04 08:22:56;;;;;;;5.80;5.30;;;;;;;;;;4954441;29;20028;-76
2023/08/04 08:25:22;;;;;;;5.65;5.20;;;;;;;;;;4954455;29;20049;-75
2023/08/04 08:27:48;;;;;;;5.03;4.70;;;;;;;;;;4955416;28;20031;-73
2023/08/04 08:30:14;;;;;;;4.65;4.20;;;;;;;;;;4954332;29;20445;-74
2023/08/04 08:32:40;;;;;;;6.25;4.63;;;;;;;;;;4955282;28;20050;-74
2023/08/04 08:35:06;;;;;;;5.40;4.63;;;;;;;;;;4955238;29;20047;-75
2023/08/04 08:37:32;;;;;;;4.75;4.35;;;;;;;;;;4955296;28;20050;-74
2023/08/04 08:39:58;;;;;;;5.80;4.70;;;;;;;;;;4954944;28;20035;-75
2023/08/04 08:42:24;;;;;;;8.02;4.40;;;;;;;;;;4953917;29;20102;-74
2023/08/04 08:44:50;;;;;;;4.57;4.28;;;;;;;;;;4954888;28;20533;-75
2023/08/04 08:47:16;;;;;;;6.25;4.10;;;;;;;;;;4955438;28;20038;-75
2023/08/04 08:49:46;;;;;;;4.90;4.50;;;;;;;;;;4938294;29;20047;-75
2023/08/04 08:52:12;;;;;;;5.05;4.50;;;;;;;;;;4955842;28;20055;-74
2023/08/04 08:54:37;;;;;;;4.88;4.38;;;;;;;;;;4955510;28;20414;-75
2023/08/04 08:57:04;;;;;;;4.43;4.22;;;;;;;;;;4955481;29;20035;-76
2023/08/04 08:59:31;;;;;;;6.15;4.45;;;;;;;;;;4955333;28;20607;-73
2023/08/04 09:01:57;;;;;;;6.03;4.32;;;;;;;;;;4954865;28;20364;-75
2023/08/04 09:04:23;;;;;;;4.47;4.18;;;;;;;;;;4954167;29;20046;-75
2023/08/04 09:06:49;;;;;;;5.93;4.90;;;;;;;;;;4955115;28;20031;-75
2023/08/04 09:09:15;;;;;;;5.13;4.60;;;;;;;;;;4953923;29;20114;-74
2023/08/04 09:11:41;;;;;;;5.13;4.82;;;;;;;;;;4955841;28;20086;-74
2023/08/04 09:14:07;;;;;;;5.25;4.85;;;;;;;;;;4922220;29;20039;-75
2023/08/04 09:16:36;;;;;;;5.15;4.45;;;;;;;;;;4955038;28;20050;-74
2023/08/04 09:19:08;;;;;;;8.00;4.60;;;;;;;;;;4954952;28;20498;-74
2023/08/04 09:21:34;;;;;;;7.13;4.72;;;;;;;;;;4954423;29;20199;-74
2023/08/04 09:24:01;;;;;;;5.47;4.82;;;;;;;;;;4955350;28;20306;-75
2023/08/04 09:26:27;;;;;;;4.80;4.43;;;;;;;;;;4956588;28;20121;-75
2023/08/04 09:29:05;;;;;;;5.43;5.03;;;;;;;;;;4959199;29;20085;-74
2023/08/04 09:31:35;;;;;;;5.80;4.88;;;;;;;;;;4941953;29;20062;-74
2023/08/04 09:34:03;;;;;;;6.80;4.70;;;;;;;;;;4953502;29;20039;-74
2023/08/04 09:36:29;;;;;;;5.35;5.05;;;;;;;;;;4954424;28;20051;-77
2023/08/04 09:39:00;;;;;;;4.53;4.22;;;;;;;;;;4953077;29;20409;-75
2023/08/04 09:41:26;;;;;;;5.30;5.00;;;;;;;;;;4953333;29;20042;-75
2023/08/04 09:43:52;;;;;;;5.32;4.97;;;;;;;;;;4954279;28;20502;-75
2023/08/04 09:46:18;;;;;;;5.03;4.63;;;;;;;;;;4953065;29;20034;-76
2023/08/04 09:48:44;;;;;;;2.90;2.70;;;;;;;;;;4954226;28;20048;-74
2023/08/04 09:51:10;;;;;;;5.72;5.22;;;;;;;;;;4954254;29;20043;-74
2023/08/04 09:53:40;;;;;;;5.38;4.82;;;;;;;;;;4952805;28;20047;-72
2023/08/04 09:56:08;;;;;;;5.25;4.82;;;;;;;;;;4953833;28;20058;-72
2023/08/04 09:58:34;;;;;;;5.30;4.80;;;;;;;;;;4952815;29;20051;-75
2023/08/04 10:01:01;;;;;;;4.93;4.72;;;;;;;;;;4953880;29;20517;-74
2023/08/04 10:03:27;;;;;;;5.10;4.70;;;;;;;;;;4952686;29;20039;-74
2023/08/04 10:05:55;;;;;;;4.63;4.32;;;;;;;;;;4952278;29;20174;-76
2023/08/04 10:08:21;;;;;;;5.18;4.30;;;;;;;;;;4937003;29;20035;-75
2023/08/04 10:10:47;;;;;;;5.80;4.30;;;;;;;;;;4953696;28;20061;-75
2023/08/04 10:13:12;;;;;;;4.95;4.55;;;;;;;;;;4954027;28;20522;-75
2023/08/04 10:15:39;;;;;;;5.65;4.50;;;;;;;;;;4952405;29;20051;-75
2023/08/04 10:18:05;;;;;;;5.57;5.05;;;;;;;;;;4953655;29;20114;-75
2023/08/04 10:20:34;;;;;;;4.45;4.10;;;;;;;;;;4952318;29;20117;-74
2023/08/04 10:23:00;;;;;;;5.65;4.70;;;;;;;;;;4953468;28;20070;-74
2023/08/04 10:25:26;;;;;;;4.60;4.30;;;;;;;;;;4953286;28;20134;-75
2023/08/04 10:27:52;;;;;;;5.25;3.60;;;;;;;;;;4953044;29;20043;-75
2023/08/04 10:30:18;;;;;;;4.10;3.75;;;;;;;;;;4953108;28;20038;-75
2023/08/04 10:32:44;;;;;;;4.20;3.88;;;;;;;;;;4953212;28;20043;-74
2023/08/04 10:35:17;;;;;;;3.83;3.53;;;;;;;;;;4952956;28;20081;-75
2023/08/04 10:37:43;;;;;;;6.25;4.68;;;;;;;;;;4953303;28;20035;-74
2023/08/04 10:40:09;;;;;;;8.38;3.47;;;;;;;;;;4951825;29;20418;-75
2023/08/04 10:42:35;;;;;;;4.22;4.00;;;;;;;;;;4951821;28;20045;-75
2023/08/04 10:45:03;;;;;;;5.60;4.25;;;;;;;;;;4951566;28;20049;-77
2023/08/04 10:47:32;;;;;;;3.78;3.50;;;;;;;;;;4953768;28;20110;-75
2023/08/04 10:49:58;;;;;;;3.50;3.30;;;;;;;;;;4952776;29;20345;-75
2023/08/04 10:52:24;;;;;;;7.22;3.80;;;;;;;;;;4951762;29;20334;-74
2023/08/04 10:54:51;;;;;;;3.97;2.70;;;;;;;;;;4952805;29;20060;-75
2023/08/04 10:57:21;;;;;;;9.02;3.28;;;;;;;;;;4952910;29;20043;-74
2023/08/04 10:59:48;;;;;;;5.10;3.38;;;;;;;;;;4952719;29;20070;-76
2023/08/04 11:02:20;;;;;;;3.60;3.30;;;;;;;;;;4952767;28;20031;-75
2023/08/04 11:04:47;;;;;;;3.38;3.08;;;;;;;;;;4952621;29;20098;-75
2023/08/04 11:07:14;;;;;;;7.00;2.70;;;;;;;;;;4952583;28;20043;-73
2023/08/04 11:09:40;;;;;;;3.90;2.70;;;;;;;;;;4952460;29;20043;-73
2023/08/04 11:12:06;;;;;;;2.72;2.60;;;;;;;;;;4951221;29;20518;-75
2023/08/04 11:14:33;;;;;;;4.80;3.05;;;;;;;;;;4952683;28;20047;-75
2023/08/04 11:17:01;;;;;;;4.60;3.63;;;;;;;;;;4952294;28;20503;-75
2023/08/04 11:19:30;;;;;;;3.20;3.00;;;;;;;;;;4952579;28;20039;-76
2023/08/04 11:21:56;;;;;;;3.42;3.22;;;;;;;;;;4950948;29;20050;-76
2023/08/04 11:24:25;;;;;;;5.60;2.78;;;;;;;;;;4952533;28;20058;-75
2023/08/04 11:26:51;;;;;;;2.72;2.53;;;;;;;;;;4952160;28;20514;-76
2023/08/04 11:29:18;;;;;;;4.97;2.83;;;;;;;;;;4951097;29;20498;-75
2023/08/04 11:31:44;;;;;;;2.38;2.22;;;;;;;;;;4952396;29;20035;-76
2023/08/04 11:34:12;;;;;;;2.75;2.55;;;;;;;;;;4950879;29;20143;-77
2023/08/04 11:36:38;;;;;;;3.20;3.00;;;;;;;;;;4952214;29;20490;-75
2023/08/04 11:39:04;;;;;;;3.03;2.85;;;;;;;;;;4950808;29;20067;-75
2023/08/04 11:41:30;;;;;;;4.18;3.10;;;;;;;;;;4952264;28;20058;-76
2023/08/04 11:43:58;;;;;;;3.28;3.00;;;;;;;;;;4952411;29;20065;-75
2023/08/04 11:46:24;;;;;;;3.63;3.42;;;;;;;;;;4952183;28;20035;-77
2023/08/04 11:48:50;;;;;;;8.40;3.28;;;;;;;;;;4952444;28;20094;-75
2023/08/04 11:51:16;;;;;;;3.47;3.17;;;;;;;;;;4952131;28;20587;-75
2023/08/04 11:53:43;;;;;;;5.15;3.42;;;;;;;;;;4952523;28;20047;-75
2023/08/04 11:56:09;;;;;;;4.00;3.17;;;;;;;;;;4949578;29;20094;-75
2023/08/04 11:58:36;;;;;;;6.22;2.90;;;;;;;;;;4952059;28;20526;-75
2023/08/04 12:01:02;;;;;;;3.95;3.15;;;;;;;;;;4950598;29;20035;-75
2023/08/04 12:03:44;;;;;;;8.27;3.10;;;;;;;;;;4951065;29;20117;-75
2023/08/04 12:06:17;;;;;;;3.45;3.10;;;;;;;;;;4951739;28;20039;-75
2023/08/04 12:08:49;;;;;;;3.25;3.05;;;;;;;;;;4952405;29;20047;-76
2023/08/04 12:11:16;;;;;;;3.40;3.20;;;;;;;;;;4951159;29;20039;-75
2023/08/04 12:13:42;;;;;;;5.03;3.50;;;;;;;;;;4953074;29;20078;-76
2023/08/04 12:16:08;;;;;;;3.38;3.15;;;;;;;;;;4952524;29;20043;-76
2023/08/04 12:18:34;;;;;;;3.50;3.20;;;;;;;;;;4952991;28;20131;-77
2023/08/04 12:21:01;;;;;;;3.78;3.47;;;;;;;;;;4952519;28;20118;-76
2023/08/04 12:23:27;;;;;;;3.60;3.40;;;;;;;;;;4953114;28;20066;-75
2023/08/04 12:25:53;;;;;;;3.45;3.25;;;;;;;;;;4952757;28;20039;-75
2023/08/04 12:28:19;;;;;;;3.88;3.50;;;;;;;;;;4953600;28;20035;-75
2023/08/04 12:30:45;;;;;;;6.70;3.42;;;;;;;;;;4952464;29;20035;-75
2023/08/04 12:33:11;;;;;;;3.72;3.42;;;;;;;;;;4954652;29;20035;-78
2023/08/04 12:35:37;;;;;;;3.50;3.30;;;;;;;;;;4957182;28;20529;-76
2023/08/04 12:38:04;;;;;;;5.15;3.60;;;;;;;;;;4961166;28;20035;-74
2023/08/04 12:40:33;;;;;;;3.97;3.67;;;;;;;;;;4959464;28;20039;-75
2023/08/04 12:42:59;;;;;;;4.85;3.45;;;;;;;;;;4951602;28;20062;-75
2023/08/04 12:45:25;;;;;;;5.13;3.60;;;;;;;;;;4966348;28;20462;-75
2023/08/04 12:47:51;;;;;;;3.95;3.55;;;;;;;;;;4951795;28;20058;-75
2023/08/04 12:50:17;;;;;;;3.33;3.13;;;;;;;;;;4951498;28;20040;-76
2023/08/04 12:52:43;;;;;;;4.15;3.33;;;;;;;;;;4951356;29;20039;-76
2023/08/04 12:55:09;;;;;;;3.92;3.63;;;;;;;;;;4951111;28;20134;-76
2023/08/04 12:57:35;;;;;;;5.70;3.55;;;;;;;;;;4951232;28;20487;-74
2023/08/04 13:00:01;;;;;;;4.25;3.95;;;;;;;;;;4951068;28;20035;-75
2023/08/04 13:02:30;;;;;;;4.80;4.00;;;;;;;;;;4950276;29;20046;-76
2023/08/04 13:04:56;;;;;;;5.38;3.97;;;;;;;;;;4950416;29;20836;-75
2023/08/04 13:07:23;;;;;;;4.50;4.10;;;;;;;;;;4953559;28;20042;-73
2023/08/04 13:09:48;;;;;;;16.60;4.63;;;;;;;;;;4954742;28;20518;-76
2023/08/04 13:12:14;;;;;;;4.13;3.83;;;;;;;;;;4954472;28;20170;-76
2023/08/04 13:14:40;;;;;;;7.28;4.07;;;;;;;;;;4954571;28;20039;-75
2023/08/04 13:17:06;;;;;;;4.32;3.80;;;;;;;;;;4953212;29;20043;-75
2023/08/04 13:19:32;;;;;;;4.93;4.20;;;;;;;;;;4954651;28;20031;-74
2023/08/04 13:21:58;;;;;;;10.82;4.03;;;;;;;;;;4953191;29;20066;-75
2023/08/04 13:24:24;;;;;;;7.78;4.18;;;;;;;;;;4953321;29;20057;-75
2023/08/04 13:26:52;;;;;;;4.10;3.75;;;;;;;;;;4954538;29;20034;-76
2023/08/04 13:29:18;;;;;;;4.00;3.70;;;;;;;;;;4953060;29;20137;-75
2023/08/04 13:31:44;;;;;;;7.75;3.90;;;;;;;;;;4954442;28;20133;-74
2023/08/04 13:34:10;;;;;;;3.92;3.72;;;;;;;;;;4954043;28;20083;-76
2023/08/04 13:36:36;;;;;;;4.20;3.88;;;;;;;;;;4954165;28;20054;-76
2023/08/04 13:39:03;;;;;;;5.57;5.07;;;;;;;;;;4952998;29;20067;-75
2023/08/04 13:41:29;;;;;;;4.72;4.30;;;;;;;;;;4954308;28;20047;-76
2023/08/04 13:43:54;;;;;;;3.88;3.60;;;;;;;;;;4955642;28;20036;-77
2023/08/04 13:46:21;;;;;;;8.13;3.90;;;;;;;;;;4953276;29;20042;-75
2023/08/04 13:48:47;;;;;;;6.05;4.10;;;;;;;;;;4954088;29;20122;-76
2023/08/04 13:51:13;;;;;;;5.10;4.10;;;;;;;;;;4953945;29;20043;-77
2023/08/04 13:53:39;;;;;;;5.30;4.10;;;;;;;;;;4952677;29;20031;-75
2023/08/04 13:56:06;;;;;;;4.65;3.85;;;;;;;;;;4953403;28;20051;-77
2023/08/04 13:58:32;;;;;;;4.97;4.57;;;;;;;;;;4953596;28;20058;-74
2023/08/04 14:00:58;;;;;;;4.72;4.32;;;;;;;;;;4953709;28;20110;-76
2023/08/04 14:03:24;;;;;;;4.97;4.68;;;;;;;;;;4953499;29;20478;-76
2023/08/04 14:05:57;;;;;;;4.50;4.30;;;;;;;;;;4953715;28;20054;-75
2023/08/04 14:08:23;;;;;;;4.57;4.18;;;;;;;;;;4953565;28;20089;-76
2023/08/04 14:10:48;;;;;;;4.95;4.55;;;;;;;;;;4953583;28;20450;-76
2023/08/04 14:13:15;;;;;;;4.68;4.30;;;;;;;;;;4953370;28;20074;-76
2023/08/04 14:15:41;;;;;;;4.63;4.10;;;;;;;;;;4953344;29;20097;-76
2023/08/04 14:18:07;;;;;;;7.53;5.10;;;;;;;;;;4952622;28;20531;-76
2023/08/04 14:20:33;;;;;;;6.28;4.40;;;;;;;;;;4953422;28;20035;-76
2023/08/04 14:22:59;;;;;;;9.75;4.72;;;;;;;;;;4953468;28;20422;-76
2023/08/04 14:25:25;;;;;;;4.85;4.43;;;;;;;;;;4953221;28;20127;-76
2023/08/04 14:27:51;;;;;;;4.75;4.35;;;;;;;;;;4953510;28;20076;-76